Dover, DE (19901)

5:16 AM EDT on September 02, 2015 (GMT -0400)
St. Jones Commons (Sunde) | | Change Station
CLOSE
Current Station
Personal Weather Station
Location: Dover, DE
Elevation: 39 ft
Nearby Weather Stations

Elev 39 ft 39.13 °N, 75.51 °W | Updated 1 second ago

Clear
Clear
68.8 °F
Feels Like 68.8 °F
N
0.0
Wind Variable Wind from SW
Gusts 0.0 mph

Today
High -- | Low -- °F
--% Chance of Precip.
Yesterday
High -- | Low -- °F
Precip. -- in
6:31 AM 7:31 PM
Waning Gibbous, 82% visible
Pressure 30.01 in
Visibility 10.0 miles
Clouds Clear
Dew Point 68 °F
Humidity 98%
Rainfall 0.00 in
Snow Depth Not available.
UV 0 out of 12
Pollen 10.10 out of 12
Air Quality Not available.
Flu Activity Not available.
METAR KDOV 020858Z AUTO 28002KT 10SM CLR 21/21 A3000 RMK AO2 SLP162 T02120212 55003 VISNO RWY19 CHINO RWY19 $
Pressure 30.01 in
Visibility 10.0 miles
Clouds Clear
Dew Point 68 °F
Humidity 98%
Rainfall 0.00 in
Snow Depth Not available.
UV 0 out of 12
Pollen 10.10 out of 12
Air Quality Not available.
Flu Activity Not available.
METAR KDOV 020858Z AUTO 28002KT 10SM CLR 21/21 A3000 RMK AO2 SLP162 T02120212 55003 VISNO RWY19 CHINO RWY19 $
Nowcast | as of 5:09 am EDT on September 2, 2015

Patchy fog will persist through dawn across portions of the region, reducing visibilities to one half mile at times. Motorists are urged to exercise caution for rapidly changing visibilities. Reduce speed, allow extra time to reach your destination, and use low beam headlights if you encounter fog. The fog should begin to dissipate shortly after sunrise.

×

10-Day Weather Forecast

×

Almanac

Astronomy

Sep. 02, 2015 Rise Set
Actual Time
Civil Twilight
Nautical Twilight
Astronomical Twilight
Moon
Length of Visible Light
Length of Day
Tomorrow will be .
, % of the Moon is Illuminated

Today's Extremes

State Highs State Lows

Community

WunderPhotos

Upload Photos

1,851,729 photos uploaded!

WunderBlogs® & News

Nearby

Air Quality

  Air Quality AQ Index Pollutant
Not available.

Snow Depth

Station Depth Elevation

Earthquake Activity

City Distance Mag. Time & Date
Minimum magnitude displayed is 2.5.

Coastal Water Temperatures

Place Temperature

Stations

Nearby Weather Stations

Station Location Temp. Windchill Dew Point Humidity Wind Precip. Elev Updated Type